This is the latest recevied weather packets stored in our database for station/object OE7SBH-WX. If no packets are shown the sender has not sent any weather packets the latest 10 day(s).
| Time | Temp. | Humidity | Pressure | Rain* | Wind** | Luminosity | Snow |
|---|---|---|---|---|---|---|---|
| 1777996230 | 20.56° C | 41% | 1012.4 hPa | 0 mm | - | 68 W/m² | - |
| 1777987251 | 21.11° C | 38% | 1012.6 hPa | 0 mm | - | 77 W/m² | - |
| 1777985419 | 21.11° C | 37% | 1012.4 hPa | 0 mm | - | 153 W/m² | - |
| 1777983644 | 21.67° C | 37% | 1012.3 hPa | 0 mm | - | 180 W/m² | - |
| 1777983033 | 21.67° C | 38% | 1012.4 hPa | 0 mm | - | 188 W/m² | - |
| 1777979430 | 22.22° C | 35% | 1012.6 hPa | 0 mm | - | 193 W/m² | - |
| 1777978824 | 22.22° C | 35% | 1012.5 hPa | 0 mm | - | 232 W/m² | - |
| 1777969533 | 21.67° C | 41% | 1013.4 hPa | 0 mm | - | 509 W/m² | - |
| 1777967152 | 17.22° C | 50% | 1014.3 hPa | 0 mm | - | 414 W/m² | - |
| 1777959321 | 11.11° C | 70% | 1015.4 hPa | 0 mm | - | 120 W/m² | - |
| 1777949733 | 10° C | 72% | 1016.2 hPa | 0 mm | - | 0 W/m² | - |
| 1777946127 | 11.11° C | 69% | 1016.5 hPa | 0 mm | - | 0 W/m² | - |
| 1777942521 | 12.22° C | 66% | 1016.6 hPa | 0 mm | - | 0 W/m² | - |
| 1777936528 | 15° C | 57% | 1017.1 hPa | 0 mm | - | 0 W/m² | - |
| 1777930527 | 16.67° C | 50% | 1017.8 hPa | 0 mm | - | 0 W/m² | - |
| 1777929934 | 16.67° C | 46% | 1017.8 hPa | 0 mm | - | 0 W/m² | - |
| 1777925134 | 18.89° C | 44% | 1017.7 hPa | 0 mm | - | 0 W/m² | - |
| 1777924521 | 18.89° C | 43% | 1017.6 hPa | 0 mm | - | 0 W/m² | - |
| 1777922134 | 20° C | 40% | 1017.5 hPa | 0 mm | - | 0 W/m² | - |
| 1777919741 | 20.56° C | 37% | 1017.4 hPa | 0 mm | - | 1 W/m² | - |
| 1777917318 | 22.78° C | 31% | 1016.9 hPa | 0 mm | - | 13 W/m² | - |
| 1777916129 | 23.33° C | 30% | 1016.7 hPa | 0 mm | - | 21 W/m² | - |
| 1777914333 | 23.89° C | 29% | 1016.5 hPa | 0 mm | - | 74 W/m² | - |
| 1777912534 | 24.44° C | 28% | 1016.4 hPa | 0 mm | - | 96 W/m² | - |
| 1777908334 | 24.44° C | 25% | 1016.6 hPa | 0 mm | - | 89 W/m² | - |
* Rain latest hour (hover to see other rain measurements)
** Current wind speed in m/s (hover to see current wind gust speed)